Brownville, ME

1:09 AM EST on February 09, 2016 (GMT -0500)
Railroad Ave. Brownville Jct. | | Change Station
CLOSE
Current Station
Personal Weather Station
Location: Brownville, ME
Elevation: 385 ft
Nearby Weather Stations
Active Advisory: Winter Weather Advisory

Elev 385 ft 45.35 °N, 69.05 °W | Updated 9 seconds ago

Snow
Snow
15.8 °F
Feels Like 9 °F
N
4.2
Wind Variable Wind from ENE

Today
High -- | Low -- °F
--% Chance of Precip.
Yesterday
High -- | Low -- °F
Precip. -- in
Pressure 29.80 in
Visibility 1.0 miles
Clouds
Windchill 9 °F
Dew Point 13 °F
Humidity 90%
Rainfall 0.00 in
Snow Depth Not available.
6:47 AM 4:54 PM
New Moon, 1% visible
SPECI KMLT 090605Z AUTO 35010KT 1SM -SN VV009 M09/M12 A2980 RMK AO2 P0000 T10891122
Pressure 29.80 in
Visibility 1.0 miles
Clouds
Windchill 9 °F
Dew Point 13 °F
Humidity 90%
Rainfall 0.00 in
Snow Depth Not available.
6:47 AM 4:54 PM
New Moon, 1% visible
SPECI KMLT 090605Z AUTO 35010KT 1SM -SN VV009 M09/M12 A2980 RMK AO2 P0000 T10891122

10-Day Weather Forecast

Almanac

Astronomy

Feb. 09, 2016 Rise Set
Actual Time
Civil Twilight
Nautical Twilight
Astronomical Twilight
Moon
Length of Visible Light
Length of Day
Tomorrow will be .
, % of the Moon is Illuminated

Today's Extremes

State Highs State Lows

Community

WunderPhotos

Upload Photos

1,891,570 photos uploaded!

WunderBlog® & News

Nearby

Air Quality

  Air Quality AQ Index Pollutant
Not available.

Snow Depth

Station Depth Elevation

Earthquake Activity

City Distance Mag. Time & Date
Minimum magnitude displayed is 2.5.

Coastal Water Temperatures

Place Temperature

Stations

Nearby Weather Stations

Station Location Temp. Windchill Dew Point Humidity Wind Precip. Elev Updated Type
                   

Watches & Warnings

Winter Weather Advisory
Issued: 11:44 PM EST Feb. 8, 2016 – National Weather Service

... Winter Weather Advisory now in effect until 3 PM EST Tuesday...

* locations... portions of downeast Maine and the Bangor region.

* Snow accumulations... 4 to 8 inches.

* Timing... snow will continue into Tuesday morning then taper
off to snow showers Tuesday afternoon.

* Impacts... moderate. Roads will become snow covered and slippery
during the afternoon commute and continue into Tuesday. Some
blowing and drifting snow can be expected with visibilities
reduced to one half of a mile at times.

* Winds... north 10 to 15 mph with gusts up to 20 mph.

Precautionary/preparedness actions...

A Winter Weather Advisory for snow means that periods of snow
will cause primarily travel difficulties. Be prepared for snow
covered roads and limited visibilities... and use caution while
driving.